x

Dunkirk, Ny (dbln6) Weather Station

1:00pm - Sun 24th May 2015 All times are CDT. -5 hours from GMT.

  • Wind
    20mph, 21mph gusts
  • Air Temp 64°f
  • Sea Pressure 1024.2mb
  • Dunkirk, Ny
  • Dunkirk, Ny

More Historic Weather Station data

Upgrade to MSW Pro to gain access to the past 30 days of data for over 8000 Wavebouys and Weather Stations around the globe.

Join Pro

Comparision Forecast

View Surf forecast
   
Sun 05/24 1:00pm 20 21 mph 1024.2mb 64f
12:00pm 18
mph
1024.8mb 64f
11:00am 15 16 mph 1024.9mb 65f
10:00am 15 17 mph 1025.1mb 66f
9:00am 15 18 mph 1025.1mb 70f
8:00am 5 8 mph 1026.2mb 68f
7:00am 5 6 mph 1026.7mb 63f
6:00am 10 14 mph 1026.4mb 57f
5:00am 11 14 mph 1025.5mb 54f
4:00am 10 13 mph 1025.2mb 54f
3:00am 10 13 mph 1025.2mb 54f
2:00am 11 14 mph 1025.5mb 56f
1:00am 8 9 mph 1026.1mb 55f
12:00am 8 11 mph 1026mb 56f
Sat 05/23 11:00pm 7 9 mph 1026.2mb 56f
10:00pm 9 11 mph 1026.1mb 58f
9:00pm 6 10 mph 1026.3mb 61f
8:00pm 6 10 mph 1026.3mb 61f
7:00pm 8 10 mph 1026.5mb 63f
6:00pm 6 9 mph 1026.9mb 62f
5:00pm 8 9 mph 1028.1mb 60f
4:00pm 9 11 mph 1028.6mb 59f
3:00pm 9 10 mph 1029.4mb 58f
2:00pm 7 8 mph 1029.8mb 56f
1:00pm 7 8 mph 1030.4mb 54f
12:00pm 7 8 mph 1030.8mb 52f
11:00am 7 8 mph 1031.2mb 52f
10:00am 8
mph
1031.5mb 52f
9:00am 7 10 mph 1031.5mb 52f
8:00am 7 8 mph 1031.2mb 51f
7:00am 7 8 mph 1030.8mb 47f
6:00am 10 14 mph 1030mb 42f
5:00am 8 9 mph 1029mb 37f
4:00am 6 7 mph 1028.5mb 37f
3:00am 6 7 mph 1028.6mb 39f
2:00am 7 8 mph 1028.6mb 40f
1:00am 10 11 mph 1027.8mb 47f
12:00am 13 14 mph 1027.2mb 47f
Fri 05/22 11:00pm 16 17 mph 1026.4mb 49f
10:00pm 7 8 mph 1026.4mb 49f
9:00pm 7 9 mph 1025.9mb 51f
8:00pm 9 11 mph 1025.2mb 50f
7:00pm 17 21 mph 1024.1mb 51f
6:00pm 21 24 mph 1022.5mb 51f
5:00pm 20 23 mph 1021.9mb 50f
4:00pm 28 30 mph 1020.2mb 50f
3:00pm 32 38 mph 1019.3mb 52f
2:00pm 30 34 mph 1019.1mb 52f
1:00pm 24 29 mph 1019.5mb 51f
12:00pm 21 24 mph 1019.4mb 49f
11:00am 17 18 mph 1019.3mb 49f
10:00am 13 16 mph 1018.9mb 48f
9:00am 14 15 mph 1018.5mb 47f
8:00am 16 18 mph 1017.7mb 47f
7:00am 18 22 mph 1016.7mb 47f
6:00am 15 18 mph 1015.9mb 49f
5:00am 16 18 mph 1015.4mb 49f
4:00am 18 22 mph 1014.4mb 49f
3:00am 24 26 mph 1013.4mb 51f
2:00am 29 33 mph 1012.5mb 54f
1:00am 29 34 mph 1012.1mb 56f
12:00am 17 24 mph 1013.2mb 55f
Thu 05/21 11:00pm 14 20 mph 1013.5mb 54f
10:00pm 13 16 mph 1013.9mb 54f
9:00pm 23 28 mph 1013.1mb 54f
8:00pm 26 31 mph 1012.6mb 54f
7:00pm 28 32 mph 1012.7mb 53f
6:00pm 24 29 mph 1012.7mb 52f
5:00pm 24 28 mph 1012.6mb 53f
4:00pm 21 24 mph 1012.6mb 54f
3:00pm 20 22 mph 1012.9mb 53f
2:00pm 17 20 mph 1013.6mb 53f
1:00pm 14 16 mph 1014.4mb 54f
12:00pm 14 15 mph 1014.8mb 54f
11:00am 10 11 mph 1015.5mb 53f
10:00am 10 13 mph 1016mb 52f
9:00am 9 11 mph 1016.1mb 50f
8:00am 7 8 mph 1016.1mb 49f
7:00am 10 11 mph 1016.3mb 48f
6:00am 5
mph
1016.4mb 47f
5:00am 3 6 mph 1016.8mb 47f
4:00am 5 7 mph 1017.3mb 47f
3:00am 11 15 mph 1017.3mb 48f
2:00am 17 20 mph 1017mb 48f
1:00am 13 15 mph 1016.9mb 49f
12:00am 6 8 mph 1017.1mb 48f
Wed 05/20 11:00pm 14 16 mph 1017mb 50f
10:00pm 15 20 mph 1017.6mb 48f
9:00pm 17 21 mph 1017.9mb 49f
8:00pm 9 13 mph 1018.3mb 49f